sensor_id;sensor_type;location;lat;lon;timestamp;temperature;humidity
69084;SHT31;56185;48.526;9.044;2024-02-14T00:00:00;2.88;82.01
69084;SHT31;56185;48.526;9.044;2024-02-14T00:02:26;2.91;82.21
69084;SHT31;56185;48.526;9.044;2024-02-14T00:04:54;2.96;81.99
69084;SHT31;56185;48.526;9.044;2024-02-14T00:07:20;2.77;81.61
69084;SHT31;56185;48.526;9.044;2024-02-14T00:09:46;2.88;81.91
69084;SHT31;56185;48.526;9.044;2024-02-14T00:12:12;2.87;81.91
69084;SHT31;56185;48.526;9.044;2024-02-14T00:14:38;2.61;82.42
69084;SHT31;56185;48.526;9.044;2024-02-14T00:17:03;2.75;82.00
69084;SHT31;56185;48.526;9.044;2024-02-14T00:19:29;2.91;81.97
69084;SHT31;56185;48.526;9.044;2024-02-14T00:21:54;2.83;82.27
69084;SHT31;56185;48.526;9.044;2024-02-14T00:24:20;2.99;81.88
69084;SHT31;56185;48.526;9.044;2024-02-14T00:26:45;2.95;81.99
69084;SHT31;56185;48.526;9.044;2024-02-14T00:29:10;2.95;81.45
69084;SHT31;56185;48.526;9.044;2024-02-14T00:31:35;2.81;82.13
69084;SHT31;56185;48.526;9.044;2024-02-14T00:34:01;2.74;82.38
69084;SHT31;56185;48.526;9.044;2024-02-14T00:36:26;2.92;81.46
69084;SHT31;56185;48.526;9.044;2024-02-14T00:38:51;2.88;81.61
69084;SHT31;56185;48.526;9.044;2024-02-14T00:41:16;2.89;80.50
69084;SHT31;56185;48.526;9.044;2024-02-14T00:43:42;2.85;80.23
69084;SHT31;56185;48.526;9.044;2024-02-14T00:46:07;2.78;81.43
69084;SHT31;56185;48.526;9.044;2024-02-14T00:48:32;3.02;80.05
69084;SHT31;56185;48.526;9.044;2024-02-14T00:50:57;3.02;80.41
69084;SHT31;56185;48.526;9.044;2024-02-14T00:53:22;3.16;80.08
69084;SHT31;56185;48.526;9.044;2024-02-14T00:55:48;3.02;80.52
69084;SHT31;56185;48.526;9.044;2024-02-14T00:58:13;3.06;81.05
69084;SHT31;56185;48.526;9.044;2024-02-14T01:00:38;3.15;81.49
69084;SHT31;56185;48.526;9.044;2024-02-14T01:03:03;3.20;81.33
69084;SHT31;56185;48.526;9.044;2024-02-14T01:05:29;3.33;80.88
69084;SHT31;56185;48.526;9.044;2024-02-14T01:07:54;3.20;81.19
69084;SHT31;56185;48.526;9.044;2024-02-14T01:10:20;3.27;82.28
69084;SHT31;56185;48.526;9.044;2024-02-14T01:12:45;3.23;83.14
69084;SHT31;56185;48.526;9.044;2024-02-14T01:15:11;3.33;82.07
69084;SHT31;56185;48.526;9.044;2024-02-14T01:17:36;3.19;84.70
69084;SHT31;56185;48.526;9.044;2024-02-14T01:20:02;3.23;83.82
69084;SHT31;56185;48.526;9.044;2024-02-14T01:22:27;3.25;83.60
69084;SHT31;56185;48.526;9.044;2024-02-14T01:24:53;3.42;84.03
69084;SHT31;56185;48.526;9.044;2024-02-14T01:27:18;3.40;83.68
69084;SHT31;56185;48.526;9.044;2024-02-14T01:29:43;3.26;83.85
69084;SHT31;56185;48.526;9.044;2024-02-14T01:32:08;3.30;83.15
69084;SHT31;56185;48.526;9.044;2024-02-14T01:34:33;3.23;83.65
69084;SHT31;56185;48.526;9.044;2024-02-14T01:36:59;3.25;83.24
69084;SHT31;56185;48.526;9.044;2024-02-14T01:39:24;3.37;82.68
69084;SHT31;56185;48.526;9.044;2024-02-14T01:41:49;3.33;83.60
69084;SHT31;56185;48.526;9.044;2024-02-14T01:44:15;3.32;85.33
69084;SHT31;56185;48.526;9.044;2024-02-14T01:46:42;3.37;84.97
69084;SHT31;56185;48.526;9.044;2024-02-14T01:49:08;3.32;86.34
69084;SHT31;56185;48.526;9.044;2024-02-14T01:51:35;3.47;84.92
69084;SHT31;56185;48.526;9.044;2024-02-14T01:54:00;3.59;84.33
69084;SHT31;56185;48.526;9.044;2024-02-14T01:56:27;3.40;85.13
69084;SHT31;56185;48.526;9.044;2024-02-14T01:58:53;3.35;85.56
69084;SHT31;56185;48.526;9.044;2024-02-14T02:01:18;3.30;86.15
69084;SHT31;56185;48.526;9.044;2024-02-14T02:03:43;3.37;86.50
69084;SHT31;56185;48.526;9.044;2024-02-14T02:06:08;3.39;85.67
69084;SHT31;56185;48.526;9.044;2024-02-14T02:08:34;3.56;85.67
69084;SHT31;56185;48.526;9.044;2024-02-14T02:10:59;3.62;84.72
69084;SHT31;56185;48.526;9.044;2024-02-14T02:13:24;3.63;84.61
69084;SHT31;56185;48.526;9.044;2024-02-14T02:15:50;3.60;84.19
69084;SHT31;56185;48.526;9.044;2024-02-14T02:18:15;3.66;84.30
69084;SHT31;56185;48.526;9.044;2024-02-14T02:20:40;3.62;84.37
69084;SHT31;56185;48.526;9.044;2024-02-14T02:23:05;3.53;84.09
69084;SHT31;56185;48.526;9.044;2024-02-14T02:25:31;3.56;84.77
69084;SHT31;56185;48.526;9.044;2024-02-14T02:27:56;3.62;83.69
69084;SHT31;56185;48.526;9.044;2024-02-14T02:30:21;3.56;83.06
69084;SHT31;56185;48.526;9.044;2024-02-14T02:32:47;3.43;83.45
69084;SHT31;56185;48.526;9.044;2024-02-14T02:35:12;3.33;83.92
69084;SHT31;56185;48.526;9.044;2024-02-14T02:37:37;3.37;85.23
69084;SHT31;56185;48.526;9.044;2024-02-14T02:40:03;3.15;85.74
69084;SHT31;56185;48.526;9.044;2024-02-14T02:42:28;3.13;84.82
69084;SHT31;56185;48.526;9.044;2024-02-14T02:44:53;3.09;85.38
69084;SHT31;56185;48.526;9.044;2024-02-14T02:47:18;3.04;87.68
69084;SHT31;56185;48.526;9.044;2024-02-14T02:49:44;3.08;86.90
69084;SHT31;56185;48.526;9.044;2024-02-14T02:52:10;3.39;85.93
69084;SHT31;56185;48.526;9.044;2024-02-14T02:54:36;3.47;85.93
69084;SHT31;56185;48.526;9.044;2024-02-14T02:57:01;3.55;84.77
69084;SHT31;56185;48.526;9.044;2024-02-14T02:59:27;3.27;84.87
69084;SHT31;56185;48.526;9.044;2024-02-14T03:01:52;3.37;85.34
69084;SHT31;56185;48.526;9.044;2024-02-14T03:04:17;3.40;85.74
69084;SHT31;56185;48.526;9.044;2024-02-14T03:06:43;3.46;85.87
69084;SHT31;56185;48.526;9.044;2024-02-14T03:09:08;3.49;85.75
69084;SHT31;56185;48.526;9.044;2024-02-14T03:11:34;3.59;85.39
69084;SHT31;56185;48.526;9.044;2024-02-14T03:13:59;3.50;85.59
69084;SHT31;56185;48.526;9.044;2024-02-14T03:16:24;3.56;85.54
69084;SHT31;56185;48.526;9.044;2024-02-14T03:18:49;3.50;86.01
69084;SHT31;56185;48.526;9.044;2024-02-14T03:21:14;3.42;86.56
69084;SHT31;56185;48.526;9.044;2024-02-14T03:23:40;3.52;85.84
69084;SHT31;56185;48.526;9.044;2024-02-14T03:26:05;3.56;86.58
69084;SHT31;56185;48.526;9.044;2024-02-14T03:28:30;3.59;85.43
69084;SHT31;56185;48.526;9.044;2024-02-14T03:30:55;3.44;85.57
69084;SHT31;56185;48.526;9.044;2024-02-14T03:33:21;3.49;85.67
69084;SHT31;56185;48.526;9.044;2024-02-14T03:35:46;3.47;85.85
69084;SHT31;56185;48.526;9.044;2024-02-14T03:38:11;3.42;86.08
69084;SHT31;56185;48.526;9.044;2024-02-14T03:40:36;3.44;85.56
69084;SHT31;56185;48.526;9.044;2024-02-14T03:43:02;3.36;86.37
69084;SHT31;56185;48.526;9.044;2024-02-14T03:45:27;3.33;86.04
69084;SHT31;56185;48.526;9.044;2024-02-14T03:47:52;3.32;85.92
69084;SHT31;56185;48.526;9.044;2024-02-14T03:50:17;3.40;85.06
69084;SHT31;56185;48.526;9.044;2024-02-14T03:52:43;3.29;85.87
69084;SHT31;56185;48.526;9.044;2024-02-14T03:55:08;3.33;85.51
69084;SHT31;56185;48.526;9.044;2024-02-14T03:57:33;3.30;85.32
69084;SHT31;56185;48.526;9.044;2024-02-14T03:59:59;3.27;85.55
69084;SHT31;56185;48.526;9.044;2024-02-14T04:02:25;3.19;85.72
69084;SHT31;56185;48.526;9.044;2024-02-14T04:04:50;3.11;86.38
69084;SHT31;56185;48.526;9.044;2024-02-14T04:07:15;3.11;86.09
69084;SHT31;56185;48.526;9.044;2024-02-14T04:09:40;3.13;85.76
69084;SHT31;56185;48.526;9.044;2024-02-14T04:12:06;3.08;85.80
69084;SHT31;56185;48.526;9.044;2024-02-14T04:14:31;3.12;85.81
69084;SHT31;56185;48.526;9.044;2024-02-14T04:16:57;3.15;85.28
69084;SHT31;56185;48.526;9.044;2024-02-14T04:19:22;3.09;86.16
69084;SHT31;56185;48.526;9.044;2024-02-14T04:21:47;3.16;85.54
69084;SHT31;56185;48.526;9.044;2024-02-14T04:24:12;3.04;85.71
69084;SHT31;56185;48.526;9.044;2024-02-14T04:26:38;2.99;85.55
69084;SHT31;56185;48.526;9.044;2024-02-14T04:29:03;2.94;85.84
69084;SHT31;56185;48.526;9.044;2024-02-14T04:31:28;2.70;86.36
69084;SHT31;56185;48.526;9.044;2024-02-14T04:33:54;2.67;85.92
69084;SHT31;56185;48.526;9.044;2024-02-14T04:36:19;2.71;86.11
69084;SHT31;56185;48.526;9.044;2024-02-14T04:38:46;2.71;85.76
69084;SHT31;56185;48.526;9.044;2024-02-14T04:41:11;2.53;87.09
69084;SHT31;56185;48.526;9.044;2024-02-14T04:43:37;2.71;86.71
69084;SHT31;56185;48.526;9.044;2024-02-14T04:46:02;2.60;86.75
69084;SHT31;56185;48.526;9.044;2024-02-14T04:48:27;2.56;86.64
69084;SHT31;56185;48.526;9.044;2024-02-14T04:50:53;2.43;87.71
69084;SHT31;56185;48.526;9.044;2024-02-14T04:53:18;2.51;87.65
69084;SHT31;56185;48.526;9.044;2024-02-14T04:55:43;2.47;87.44
69084;SHT31;56185;48.526;9.044;2024-02-14T04:58:08;2.51;86.37
69084;SHT31;56185;48.526;9.044;2024-02-14T05:00:34;2.60;86.40
69084;SHT31;56185;48.526;9.044;2024-02-14T05:02:59;2.56;86.49
69084;SHT31;56185;48.526;9.044;2024-02-14T05:05:24;2.47;86.91
69084;SHT31;56185;48.526;9.044;2024-02-14T05:07:49;2.53;86.74
69084;SHT31;56185;48.526;9.044;2024-02-14T05:10:15;2.48;87.17
69084;SHT31;56185;48.526;9.044;2024-02-14T05:12:40;2.50;87.14
69084;SHT31;56185;48.526;9.044;2024-02-14T05:15:06;2.44;87.52
69084;SHT31;56185;48.526;9.044;2024-02-14T05:17:31;2.50;87.11
69084;SHT31;56185;48.526;9.044;2024-02-14T05:19:56;2.53;87.93
69084;SHT31;56185;48.526;9.044;2024-02-14T05:22:22;2.57;87.71
69084;SHT31;56185;48.526;9.044;2024-02-14T05:24:47;2.62;87.20
69084;SHT31;56185;48.526;9.044;2024-02-14T05:27:12;2.65;86.68
69084;SHT31;56185;48.526;9.044;2024-02-14T05:29:37;2.70;87.45
69084;SHT31;56185;48.526;9.044;2024-02-14T05:32:03;2.73;87.33
69084;SHT31;56185;48.526;9.044;2024-02-14T05:34:28;2.83;87.43
69084;SHT31;56185;48.526;9.044;2024-02-14T05:36:53;2.91;87.27
69084;SHT31;56185;48.526;9.044;2024-02-14T05:39:18;2.96;87.55
69084;SHT31;56185;48.526;9.044;2024-02-14T05:41:44;2.98;87.75
69084;SHT31;56185;48.526;9.044;2024-02-14T05:44:09;3.11;87.28
69084;SHT31;56185;48.526;9.044;2024-02-14T05:46:34;3.20;87.25
69084;SHT31;56185;48.526;9.044;2024-02-14T05:49:07;3.13;87.46
69084;SHT31;56185;48.526;9.044;2024-02-14T05:51:32;3.06;87.89
69084;SHT31;56185;48.526;9.044;2024-02-14T05:53:58;3.20;87.28
69084;SHT31;56185;48.526;9.044;2024-02-14T05:56:23;3.22;87.20
69084;SHT31;56185;48.526;9.044;2024-02-14T05:58:48;3.25;86.90
69084;SHT31;56185;48.526;9.044;2024-02-14T06:01:13;3.16;87.26
69084;SHT31;56185;48.526;9.044;2024-02-14T06:03:41;3.23;86.85
69084;SHT31;56185;48.526;9.044;2024-02-14T06:06:06;3.25;86.86
69084;SHT31;56185;48.526;9.044;2024-02-14T06:08:32;3.23;86.89
69084;SHT31;56185;48.526;9.044;2024-02-14T06:10:57;3.22;86.75
69084;SHT31;56185;48.526;9.044;2024-02-14T06:13:22;3.32;86.65
69084;SHT31;56185;48.526;9.044;2024-02-14T06:15:47;3.25;87.10
69084;SHT31;56185;48.526;9.044;2024-02-14T06:18:13;3.33;86.79
69084;SHT31;56185;48.526;9.044;2024-02-14T06:20:38;3.35;86.56
69084;SHT31;56185;48.526;9.044;2024-02-14T06:23:03;3.35;86.96
69084;SHT31;56185;48.526;9.044;2024-02-14T06:25:29;3.40;87.11
69084;SHT31;56185;48.526;9.044;2024-02-14T06:27:54;3.49;86.71
69084;SHT31;56185;48.526;9.044;2024-02-14T06:30:19;3.49;86.40
69084;SHT31;56185;48.526;9.044;2024-02-14T06:32:46;3.53;87.31
69084;SHT31;56185;48.526;9.044;2024-02-14T06:35:11;3.53;86.44
69084;SHT31;56185;48.526;9.044;2024-02-14T06:37:36;3.53;86.23
69084;SHT31;56185;48.526;9.044;2024-02-14T06:40:02;3.55;85.77
69084;SHT31;56185;48.526;9.044;2024-02-14T06:42:27;3.53;85.32
69084;SHT31;56185;48.526;9.044;2024-02-14T06:44:52;3.37;86.50
69084;SHT31;56185;48.526;9.044;2024-02-14T06:47:17;3.52;86.55
69084;SHT31;56185;48.526;9.044;2024-02-14T06:49:43;3.53;86.71
69084;SHT31;56185;48.526;9.044;2024-02-14T06:52:08;3.56;86.76
69084;SHT31;56185;48.526;9.044;2024-02-14T06:54:33;3.60;86.20
69084;SHT31;56185;48.526;9.044;2024-02-14T06:56:58;3.47;86.44
69084;SHT31;56185;48.526;9.044;2024-02-14T06:59:24;3.59;86.60
69084;SHT31;56185;48.526;9.044;2024-02-14T07:01:49;3.59;86.41
69084;SHT31;56185;48.526;9.044;2024-02-14T07:04:14;3.62;86.03
69084;SHT31;56185;48.526;9.044;2024-02-14T07:06:39;3.62;86.27
69084;SHT31;56185;48.526;9.044;2024-02-14T07:09:04;3.56;86.09
69084;SHT31;56185;48.526;9.044;2024-02-14T07:11:30;3.53;86.72
69084;SHT31;56185;48.526;9.044;2024-02-14T07:13:55;3.60;85.85
69084;SHT31;56185;48.526;9.044;2024-02-14T07:16:21;3.56;86.12
69084;SHT31;56185;48.526;9.044;2024-02-14T07:18:46;3.52;86.07
69084;SHT31;56185;48.526;9.044;2024-02-14T07:21:11;3.64;85.35
69084;SHT31;56185;48.526;9.044;2024-02-14T07:23:36;3.63;85.29
69084;SHT31;56185;48.526;9.044;2024-02-14T07:26:02;3.71;85.27
69084;SHT31;56185;48.526;9.044;2024-02-14T07:28:27;3.69;85.44
69084;SHT31;56185;48.526;9.044;2024-02-14T07:30:52;3.62;85.50
69084;SHT31;56185;48.526;9.044;2024-02-14T07:33:17;3.62;85.85
69084;SHT31;56185;48.526;9.044;2024-02-14T07:35:43;3.49;86.09
69084;SHT31;56185;48.526;9.044;2024-02-14T07:38:08;3.71;86.57
69084;SHT31;56185;48.526;9.044;2024-02-14T07:40:33;3.73;86.74
69084;SHT31;56185;48.526;9.044;2024-02-14T07:42:59;3.85;86.25
69084;SHT31;56185;48.526;9.044;2024-02-14T07:45:24;3.93;86.04
69084;SHT31;56185;48.526;9.044;2024-02-14T07:47:50;4.05;85.66
69084;SHT31;56185;48.526;9.044;2024-02-14T07:50:15;4.05;85.39
69084;SHT31;56185;48.526;9.044;2024-02-14T07:52:42;4.15;85.24
69084;SHT31;56185;48.526;9.044;2024-02-14T07:55:07;4.29;83.86
69084;SHT31;56185;48.526;9.044;2024-02-14T07:57:32;4.28;84.38
69084;SHT31;56185;48.526;9.044;2024-02-14T07:59:58;4.38;84.01
69084;SHT31;56185;48.526;9.044;2024-02-14T08:02:23;4.50;82.79
69084;SHT31;56185;48.526;9.044;2024-02-14T08:04:48;4.52;83.32
69084;SHT31;56185;48.526;9.044;2024-02-14T08:07:13;4.59;83.31
69084;SHT31;56185;48.526;9.044;2024-02-14T08:09:39;4.69;84.16
69084;SHT31;56185;48.526;9.044;2024-02-14T08:12:05;4.79;83.87
69084;SHT31;56185;48.526;9.044;2024-02-14T08:14:30;4.79;83.77
69084;SHT31;56185;48.526;9.044;2024-02-14T08:16:56;4.84;83.60
69084;SHT31;56185;48.526;9.044;2024-02-14T08:19:21;4.91;84.39
69084;SHT31;56185;48.526;9.044;2024-02-14T08:21:46;5.00;83.67
69084;SHT31;56185;48.526;9.044;2024-02-14T08:24:11;5.08;83.46
69084;SHT31;56185;48.526;9.044;2024-02-14T08:26:37;5.11;84.71
69084;SHT31;56185;48.526;9.044;2024-02-14T08:29:02;5.14;83.83
69084;SHT31;56185;48.526;9.044;2024-02-14T08:31:27;5.18;83.42
69084;SHT31;56185;48.526;9.044;2024-02-14T08:33:52;5.23;83.17
69084;SHT31;56185;48.526;9.044;2024-02-14T08:36:18;5.35;83.50
69084;SHT31;56185;48.526;9.044;2024-02-14T08:38:43;5.45;82.91
69084;SHT31;56185;48.526;9.044;2024-02-14T08:41:08;5.62;83.32
69084;SHT31;56185;48.526;9.044;2024-02-14T08:43:33;5.70;82.22
69084;SHT31;56185;48.526;9.044;2024-02-14T08:45:59;5.72;81.91
69084;SHT31;56185;48.526;9.044;2024-02-14T08:48:24;5.73;82.28
69084;SHT31;56185;48.526;9.044;2024-02-14T08:50:49;5.82;82.82
69084;SHT31;56185;48.526;9.044;2024-02-14T08:53:15;5.86;82.43
69084;SHT31;56185;48.526;9.044;2024-02-14T08:55:41;5.97;82.82
69084;SHT31;56185;48.526;9.044;2024-02-14T08:58:06;5.99;81.84
69084;SHT31;56185;48.526;9.044;2024-02-14T09:00:31;6.02;82.53
69084;SHT31;56185;48.526;9.044;2024-02-14T09:02:56;6.06;82.88
69084;SHT31;56185;48.526;9.044;2024-02-14T09:05:22;6.10;83.00
69084;SHT31;56185;48.526;9.044;2024-02-14T09:07:47;6.14;83.27
69084;SHT31;56185;48.526;9.044;2024-02-14T09:10:12;6.21;83.06
69084;SHT31;56185;48.526;9.044;2024-02-14T09:12:38;6.30;80.56
69084;SHT31;56185;48.526;9.044;2024-02-14T09:15:05;6.30;81.05
69084;SHT31;56185;48.526;9.044;2024-02-14T09:17:30;6.25;82.54
69084;SHT31;56185;48.526;9.044;2024-02-14T09:19:55;6.34;82.79
69084;SHT31;56185;48.526;9.044;2024-02-14T09:22:21;6.38;83.11
69084;SHT31;56185;48.526;9.044;2024-02-14T09:24:47;6.51;82.75
69084;SHT31;56185;48.526;9.044;2024-02-14T09:27:12;6.68;80.91
69084;SHT31;56185;48.526;9.044;2024-02-14T09:29:37;6.64;80.98
69084;SHT31;56185;48.526;9.044;2024-02-14T09:32:03;6.56;81.71
69084;SHT31;56185;48.526;9.044;2024-02-14T09:34:29;6.64;82.52
69084;SHT31;56185;48.526;9.044;2024-02-14T09:36:54;6.71;82.72
69084;SHT31;56185;48.526;9.044;2024-02-14T09:39:19;6.82;82.88
69084;SHT31;56185;48.526;9.044;2024-02-14T09:41:51;6.97;81.66
69084;SHT31;56185;48.526;9.044;2024-02-14T09:44:17;7.12;82.18
69084;SHT31;56185;48.526;9.044;2024-02-14T09:46:42;7.24;81.28
69084;SHT31;56185;48.526;9.044;2024-02-14T09:49:08;7.38;82.02
69084;SHT31;56185;48.526;9.044;2024-02-14T09:51:34;7.44;81.97
69084;SHT31;56185;48.526;9.044;2024-02-14T09:54:00;7.70;80.62
69084;SHT31;56185;48.526;9.044;2024-02-14T09:56:25;7.84;79.69
69084;SHT31;56185;48.526;9.044;2024-02-14T09:58:51;7.96;80.82
69084;SHT31;56185;48.526;9.044;2024-02-14T10:01:16;8.15;80.18
69084;SHT31;56185;48.526;9.044;2024-02-14T10:03:41;8.33;79.71
69084;SHT31;56185;48.526;9.044;2024-02-14T10:06:06;8.49;79.34
69084;SHT31;56185;48.526;9.044;2024-02-14T10:08:32;8.65;77.77
69084;SHT31;56185;48.526;9.044;2024-02-14T10:10:57;8.59;77.58
69084;SHT31;56185;48.526;9.044;2024-02-14T10:13:23;8.85;77.25
69084;SHT31;56185;48.526;9.044;2024-02-14T10:15:48;8.98;77.82
69084;SHT31;56185;48.526;9.044;2024-02-14T10:18:14;9.21;76.25
69084;SHT31;56185;48.526;9.044;2024-02-14T10:20:39;9.26;76.29
69084;SHT31;56185;48.526;9.044;2024-02-14T10:23:05;9.43;76.66
69084;SHT31;56185;48.526;9.044;2024-02-14T10:25:30;9.70;76.90
69084;SHT31;56185;48.526;9.044;2024-02-14T10:27:56;9.87;77.91
69084;SHT31;56185;48.526;9.044;2024-02-14T10:30:24;10.07;76.60
69084;SHT31;56185;48.526;9.044;2024-02-14T10:32:49;10.28;76.43
69084;SHT31;56185;48.526;9.044;2024-02-14T10:35:15;10.62;75.69
69084;SHT31;56185;48.526;9.044;2024-02-14T10:37:40;10.76;74.00
69084;SHT31;56185;48.526;9.044;2024-02-14T10:40:06;10.76;73.50
69084;SHT31;56185;48.526;9.044;2024-02-14T10:42:32;10.75;74.10
69084;SHT31;56185;48.526;9.044;2024-02-14T10:44:59;10.79;74.40
69084;SHT31;56185;48.526;9.044;2024-02-14T10:47:35;10.70;73.91
69084;SHT31;56185;48.526;9.044;2024-02-14T10:50:03;10.88;73.56
69084;SHT31;56185;48.526;9.044;2024-02-14T10:52:31;11.07;74.52
69084;SHT31;56185;48.526;9.044;2024-02-14T10:54:57;11.11;72.30
69084;SHT31;56185;48.526;9.044;2024-02-14T10:57:24;11.26;72.45
69084;SHT31;56185;48.526;9.044;2024-02-14T10:59:49;11.16;72.96
69084;SHT31;56185;48.526;9.044;2024-02-14T11:02:16;11.38;72.97
69084;SHT31;56185;48.526;9.044;2024-02-14T11:04:42;11.41;72.19
69084;SHT31;56185;48.526;9.044;2024-02-14T11:07:10;11.48;72.60
69084;SHT31;56185;48.526;9.044;2024-02-14T11:09:36;11.45;72.91
69084;SHT31;56185;48.526;9.044;2024-02-14T11:12:02;11.54;72.43
69084;SHT31;56185;48.526;9.044;2024-02-14T11:14:31;11.54;72.31
69084;SHT31;56185;48.526;9.044;2024-02-14T11:16:56;11.68;72.46
69084;SHT31;56185;48.526;9.044;2024-02-14T11:19:30;11.82;72.07
69084;SHT31;56185;48.526;9.044;2024-02-14T11:21:56;11.85;72.79
69084;SHT31;56185;48.526;9.044;2024-02-14T11:24:27;11.79;73.21
69084;SHT31;56185;48.526;9.044;2024-02-14T11:26:55;11.88;72.93
69084;SHT31;56185;48.526;9.044;2024-02-14T11:29:23;11.92;72.99
69084;SHT31;56185;48.526;9.044;2024-02-14T11:32:00;11.92;73.05
69084;SHT31;56185;48.526;9.044;2024-02-14T11:34:26;11.95;73.21
69084;SHT31;56185;48.526;9.044;2024-02-14T11:36:52;11.90;73.54
69084;SHT31;56185;48.526;9.044;2024-02-14T11:39:17;11.95;73.76
69084;SHT31;56185;48.526;9.044;2024-02-14T11:41:42;11.95;73.49
69084;SHT31;56185;48.526;9.044;2024-02-14T11:44:08;11.98;72.73
69084;SHT31;56185;48.526;9.044;2024-02-14T11:46:36;12.02;73.32
69084;SHT31;56185;48.526;9.044;2024-02-14T11:49:04;12.08;72.89
69084;SHT31;56185;48.526;9.044;2024-02-14T11:51:30;12.09;71.86
69084;SHT31;56185;48.526;9.044;2024-02-14T11:53:56;12.16;71.97
69084;SHT31;56185;48.526;9.044;2024-02-14T11:56:22;12.29;71.97
69084;SHT31;56185;48.526;9.044;2024-02-14T11:58:47;12.27;71.51
69084;SHT31;56185;48.526;9.044;2024-02-14T12:01:13;12.36;72.19
69084;SHT31;56185;48.526;9.044;2024-02-14T12:03:38;12.53;72.13
69084;SHT31;56185;48.526;9.044;2024-02-14T12:06:04;12.64;71.15
69084;SHT31;56185;48.526;9.044;2024-02-14T12:08:30;12.85;70.57
69084;SHT31;56185;48.526;9.044;2024-02-14T12:10:55;12.97;71.13
69084;SHT31;56185;48.526;9.044;2024-02-14T12:13:21;12.94;70.39
69084;SHT31;56185;48.526;9.044;2024-02-14T12:15:47;12.81;70.25
69084;SHT31;56185;48.526;9.044;2024-02-14T12:18:13;12.95;69.82
69084;SHT31;56185;48.526;9.044;2024-02-14T12:20:39;13.05;70.17
69084;SHT31;56185;48.526;9.044;2024-02-14T12:23:05;13.11;70.20
69084;SHT31;56185;48.526;9.044;2024-02-14T12:25:31;13.12;69.63
69084;SHT31;56185;48.526;9.044;2024-02-14T12:27:57;13.30;69.25
69084;SHT31;56185;48.526;9.044;2024-02-14T12:30:22;13.39;69.11
69084;SHT31;56185;48.526;9.044;2024-02-14T12:33:00;13.45;68.83
69084;SHT31;56185;48.526;9.044;2024-02-14T12:35:25;13.46;69.20
69084;SHT31;56185;48.526;9.044;2024-02-14T12:37:50;13.42;69.06
69084;SHT31;56185;48.526;9.044;2024-02-14T12:40:15;13.43;69.66
69084;SHT31;56185;48.526;9.044;2024-02-14T12:42:41;13.39;68.47
69084;SHT31;56185;48.526;9.044;2024-02-14T12:45:06;13.40;69.27
69084;SHT31;56185;48.526;9.044;2024-02-14T12:47:31;13.52;69.18
69084;SHT31;56185;48.526;9.044;2024-02-14T12:49:57;13.56;69.20
69084;SHT31;56185;48.526;9.044;2024-02-14T12:52:22;13.53;68.32
69084;SHT31;56185;48.526;9.044;2024-02-14T12:54:48;13.45;69.43
69084;SHT31;56185;48.526;9.044;2024-02-14T12:57:13;13.42;69.62
69084;SHT31;56185;48.526;9.044;2024-02-14T12:59:39;13.43;69.20
69084;SHT31;56185;48.526;9.044;2024-02-14T13:02:04;13.47;69.66
69084;SHT31;56185;48.526;9.044;2024-02-14T13:04:30;13.42;69.11
69084;SHT31;56185;48.526;9.044;2024-02-14T13:06:55;13.35;69.74
69084;SHT31;56185;48.526;9.044;2024-02-14T13:09:20;13.29;69.01
69084;SHT31;56185;48.526;9.044;2024-02-14T13:11:45;13.40;69.97
69084;SHT31;56185;48.526;9.044;2024-02-14T13:14:11;13.36;70.07
69084;SHT31;56185;48.526;9.044;2024-02-14T13:16:36;13.34;69.64
69084;SHT31;56185;48.526;9.044;2024-02-14T13:19:01;13.40;70.02
69084;SHT31;56185;48.526;9.044;2024-02-14T13:21:26;13.47;70.08
69084;SHT31;56185;48.526;9.044;2024-02-14T13:23:52;13.43;69.42
69084;SHT31;56185;48.526;9.044;2024-02-14T13:26:17;13.50;69.84
69084;SHT31;56185;48.526;9.044;2024-02-14T13:28:42;13.52;69.65
69084;SHT31;56185;48.526;9.044;2024-02-14T13:31:07;13.57;69.55
69084;SHT31;56185;48.526;9.044;2024-02-14T13:33:32;13.70;69.77
69084;SHT31;56185;48.526;9.044;2024-02-14T13:35:58;13.73;69.18
69084;SHT31;56185;48.526;9.044;2024-02-14T13:38:23;13.73;69.05
69084;SHT31;56185;48.526;9.044;2024-02-14T13:40:48;13.71;68.64
69084;SHT31;56185;48.526;9.044;2024-02-14T13:43:13;13.69;69.14
69084;SHT31;56185;48.526;9.044;2024-02-14T13:45:43;13.63;69.54
69084;SHT31;56185;48.526;9.044;2024-02-14T13:48:09;13.53;69.27
69084;SHT31;56185;48.526;9.044;2024-02-14T13:50:34;13.63;69.56
69084;SHT31;56185;48.526;9.044;2024-02-14T13:53:00;13.59;68.87
69084;SHT31;56185;48.526;9.044;2024-02-14T13:55:25;13.47;69.37
69084;SHT31;56185;48.526;9.044;2024-02-14T13:57:50;13.59;69.49
69084;SHT31;56185;48.526;9.044;2024-02-14T14:00:16;13.49;69.14
69084;SHT31;56185;48.526;9.044;2024-02-14T14:02:41;13.52;69.81
69084;SHT31;56185;48.526;9.044;2024-02-14T14:05:14;13.49;69.00
69084;SHT31;56185;48.526;9.044;2024-02-14T14:08:20;13.50;69.99
69084;SHT31;56185;48.526;9.044;2024-02-14T14:10:45;13.50;70.24
69084;SHT31;56185;48.526;9.044;2024-02-14T14:13:11;13.45;69.55
69084;SHT31;56185;48.526;9.044;2024-02-14T14:15:36;13.43;69.38
69084;SHT31;56185;48.526;9.044;2024-02-14T14:18:01;13.49;70.00
69084;SHT31;56185;48.526;9.044;2024-02-14T14:20:26;13.43;70.03
69084;SHT31;56185;48.526;9.044;2024-02-14T14:22:52;13.57;69.63
69084;SHT31;56185;48.526;9.044;2024-02-14T14:25:17;13.49;69.75
69084;SHT31;56185;48.526;9.044;2024-02-14T14:27:42;13.59;69.17
69084;SHT31;56185;48.526;9.044;2024-02-14T14:30:08;13.55;69.70
69084;SHT31;56185;48.526;9.044;2024-02-14T14:32:33;13.50;69.60
69084;SHT31;56185;48.526;9.044;2024-02-14T14:34:58;13.55;69.08
69084;SHT31;56185;48.526;9.044;2024-02-14T14:37:23;13.42;69.69
69084;SHT31;56185;48.526;9.044;2024-02-14T14:39:49;13.47;69.79
69084;SHT31;56185;48.526;9.044;2024-02-14T14:42:14;13.60;69.23
69084;SHT31;56185;48.526;9.044;2024-02-14T14:44:39;13.55;69.36
69084;SHT31;56185;48.526;9.044;2024-02-14T14:47:04;13.63;69.39
69084;SHT31;56185;48.526;9.044;2024-02-14T14:49:30;13.55;69.24
69084;SHT31;56185;48.526;9.044;2024-02-14T14:51:55;13.49;69.61
69084;SHT31;56185;48.526;9.044;2024-02-14T14:54:23;13.53;69.52
69084;SHT31;56185;48.526;9.044;2024-02-14T14:56:53;13.38;69.19
69084;SHT31;56185;48.526;9.044;2024-02-14T14:59:19;13.42;69.88
69084;SHT31;56185;48.526;9.044;2024-02-14T15:01:44;13.46;69.53
69084;SHT31;56185;48.526;9.044;2024-02-14T15:04:09;13.57;69.92
69084;SHT31;56185;48.526;9.044;2024-02-14T15:06:34;13.53;70.03
69084;SHT31;56185;48.526;9.044;2024-02-14T15:09:00;13.57;69.27
69084;SHT31;56185;48.526;9.044;2024-02-14T15:11:25;13.60;69.78
69084;SHT31;56185;48.526;9.044;2024-02-14T15:13:50;13.65;69.76
69084;SHT31;56185;48.526;9.044;2024-02-14T15:16:15;13.69;69.55
69084;SHT31;56185;48.526;9.044;2024-02-14T15:18:40;13.67;69.84
69084;SHT31;56185;48.526;9.044;2024-02-14T15:21:06;13.65;69.31
69084;SHT31;56185;48.526;9.044;2024-02-14T15:23:31;13.62;70.08
69084;SHT31;56185;48.526;9.044;2024-02-14T15:25:56;13.47;70.39
69084;SHT31;56185;48.526;9.044;2024-02-14T15:28:21;13.42;70.04